Time;durP1;ratioP1;P1;durP2;ratioP2;P2;SDS_P1;SDS_P2;PMS_P1;PMS_P2;Temp;Humidity;BMP_temperature;BMP_pressure;BME280_temperature;BME280_humidity;BME280_pressure;Samples;Min_cycle;Max_cycle;Signal;HPM_P1;HPM_P2
2022/02/25 00:00:17;;;;;;;17.67;7.53;;;4.60;99.90;;;;;;5005796;28;20081;-65
2022/02/25 00:02:44;;;;;;;13.85;7.72;;;4.60;99.90;;;;;;5002689;28;20081;-68
2022/02/25 00:05:11;;;;;;;17.65;9.10;;;4.60;99.90;;;;;;5003788;28;20049;-69
2022/02/25 00:07:41;;;;;;;20.93;9.33;;;4.60;99.90;;;;;;5002682;28;20523;-66
2022/02/25 00:10:10;;;;;;;18.95;10.57;;;4.60;99.90;;;;;;4996866;28;20104;-69
2022/02/25 00:12:38;;;;;;;13.40;9.35;;;4.50;99.90;;;;;;4983598;28;20690;-69
2022/02/25 00:15:05;;;;;;;19.88;9.57;;;4.50;99.90;;;;;;4999067;28;20056;-67
2022/02/25 00:17:32;;;;;;;20.48;9.48;;;4.50;99.90;;;;;;5003042;28;20042;-71
2022/02/25 00:19:59;;;;;;;16.10;9.38;;;4.50;99.90;;;;;;5002736;28;20090;-66
2022/02/25 00:22:26;;;;;;;15.13;8.85;;;4.50;99.90;;;;;;5005147;28;20502;-65
2022/02/25 00:24:53;;;;;;;13.63;8.73;;;4.50;99.90;;;;;;5003780;28;20120;-69
2022/02/25 00:27:20;;;;;;;18.85;8.75;;;4.50;99.90;;;;;;5003243;28;20054;-69
2022/02/25 00:29:47;;;;;;;16.77;8.85;;;4.50;99.90;;;;;;5003223;28;20092;-75
2022/02/25 00:32:14;;;;;;;18.67;10.82;;;4.50;99.90;;;;;;4996412;28;20429;-72
2022/02/25 00:34:41;;;;;;;19.40;9.48;;;4.50;99.90;;;;;;4995797;28;20061;-67
2022/02/25 00:37:08;;;;;;;13.40;9.18;;;4.50;99.90;;;;;;5006254;28;20073;-69
2022/02/25 00:39:35;;;;;;;16.73;8.93;;;4.50;99.90;;;;;;5000349;28;20100;-73
2022/02/25 00:42:05;;;;;;;21.65;8.48;;;4.50;99.90;;;;;;5004334;28;20065;-65
2022/02/25 00:44:32;;;;;;;17.83;9.95;;;4.50;99.90;;;;;;5003591;28;20140;-68
2022/02/25 00:46:59;;;;;;;10.32;8.57;;;4.50;99.90;;;;;;4989581;28;20065;-70
2022/02/25 00:49:26;;;;;;;14.65;9.55;;;4.50;99.90;;;;;;5001443;28;20274;-65
2022/02/25 00:51:53;;;;;;;20.88;8.35;;;4.50;99.90;;;;;;5002810;28;21394;-69
2022/02/25 00:54:20;;;;;;;14.32;8.30;;;4.50;99.90;;;;;;5004509;28;20489;-68
2022/02/25 00:56:47;;;;;;;15.30;7.60;;;4.50;99.90;;;;;;5002728;28;20053;-68
2022/02/25 00:59:14;;;;;;;14.63;8.98;;;4.50;99.90;;;;;;5002560;28;20115;-67
2022/02/25 01:01:41;;;;;;;13.30;8.05;;;4.50;99.90;;;;;;5002423;28;20054;-69
2022/02/25 01:04:09;;;;;;;20.40;8.52;;;4.40;99.90;;;;;;4996037;28;20172;-73
2022/02/25 01:06:36;;;;;;;14.15;7.95;;;4.40;99.90;;;;;;4982567;28;20105;-64
2022/02/25 01:09:03;;;;;;;17.17;8.85;;;4.50;99.90;;;;;;4985200;28;20051;-67
2022/02/25 01:11:30;;;;;;;15.52;8.88;;;4.40;99.90;;;;;;4981843;28;20758;-64
2022/02/25 01:13:58;;;;;;;14.43;8.77;;;4.40;99.90;;;;;;4984007;28;20056;-65
2022/02/25 01:16:25;;;;;;;18.15;7.97;;;4.40;99.90;;;;;;4982640;28;20050;-66
2022/02/25 01:18:52;;;;;;;15.43;8.23;;;4.40;99.90;;;;;;4984113;28;20671;-66
2022/02/25 01:21:19;;;;;;;10.80;6.88;;;4.40;99.90;;;;;;4981381;28;20092;-67
2022/02/25 01:23:46;;;;;;;16.38;8.07;;;4.40;99.90;;;;;;4987359;28;20053;-70
2022/02/25 01:26:13;;;;;;;15.30;8.30;;;4.40;99.90;;;;;;5003613;28;20466;-69
2022/02/25 01:28:40;;;;;;;16.05;7.25;;;4.40;99.90;;;;;;4999211;28;20688;-66
2022/02/25 01:31:07;;;;;;;14.35;7.55;;;4.40;99.90;;;;;;5003867;28;20086;-71
2022/02/25 01:33:34;;;;;;;16.55;7.82;;;4.40;99.90;;;;;;5001322;28;20089;-67
2022/02/25 01:36:03;;;;;;;17.15;7.57;;;4.40;99.90;;;;;;5003417;28;20177;-72
2022/02/25 01:38:30;;;;;;;17.10;9.55;;;4.40;99.90;;;;;;5003204;28;20100;-66
2022/02/25 01:40:58;;;;;;;16.95;7.68;;;4.50;99.90;;;;;;5002711;28;20090;-64
2022/02/25 01:43:32;;;;;;;16.60;8.54;;;4.40;99.90;;;;;;4736306;28;10001317;-68
2022/02/25 01:45:59;;;;;;;14.77;8.25;;;4.40;99.90;;;;;;683990;28;10002022;-69
2022/02/25 01:48:27;;;;;;;16.05;7.82;;;4.50;99.90;;;;;;4982890;28;20300;-65
2022/02/25 01:50:54;;;;;;;15.85;8.68;;;4.50;99.90;;;;;;4983349;28;20274;-67
2022/02/25 01:53:22;;;;;;;18.38;8.10;;;4.50;99.90;;;;;;4982781;28;20223;-66
2022/02/25 01:55:49;;;;;;;14.35;8.20;;;4.50;99.90;;;;;;4982866;28;20074;-65
2022/02/25 01:58:16;;;;;;;13.55;7.45;;;4.40;99.90;;;;;;4980671;28;20140;-66
2022/02/25 02:00:44;;;;;;;16.23;8.40;;;4.50;99.90;;;;;;4983036;28;20747;-66
2022/02/25 02:03:12;;;;;;;13.88;8.00;;;4.50;99.90;;;;;;4981036;28;20050;-65
2022/02/25 02:05:39;;;;;;;18.23;8.30;;;4.50;99.90;;;;;;4984471;28;20050;-68
2022/02/25 02:08:06;;;;;;;15.05;9.60;;;4.50;99.90;;;;;;4984711;28;20583;-67
2022/02/25 02:10:33;;;;;;;12.35;7.72;;;4.60;99.90;;;;;;4986910;28;20093;-71
2022/02/25 02:13:00;;;;;;;15.30;8.57;;;4.60;99.90;;;;;;4984809;28;20448;-66
2022/02/25 02:15:27;;;;;;;20.58;8.85;;;4.60;99.90;;;;;;4985755;28;20042;-64
2022/02/25 02:17:54;;;;;;;13.77;9.38;;;4.60;99.90;;;;;;4986815;28;20492;-70
2022/02/25 02:20:21;;;;;;;16.75;9.20;;;4.60;99.90;;;;;;4988575;28;20078;-67
2022/02/25 02:22:48;;;;;;;13.00;8.80;;;4.60;99.90;;;;;;4986841;28;20054;-65
2022/02/25 02:25:15;;;;;;;23.27;10.38;;;4.60;99.90;;;;;;4983885;28;20074;-66
2022/02/25 02:30:27;;;;;;;16.30;9.02;;;4.60;99.90;;;;;;4985340;28;20053;-68
2022/02/25 02:32:58;;;;;;;16.30;8.88;;;4.60;99.90;;;;;;4987338;28;20432;-65
2022/02/25 02:35:25;;;;;;;11.50;9.32;;;4.60;99.90;;;;;;4984711;28;20122;-66
2022/02/25 02:37:51;;;;;;;16.67;8.95;;;4.60;99.90;;;;;;4987061;28;20137;-65
2022/02/25 02:40:19;;;;;;;23.38;9.15;;;4.60;99.90;;;;;;4987715;28;20046;-66
2022/02/25 02:42:46;;;;;;;21.85;10.00;;;4.60;99.90;;;;;;4987355;28;20126;-65
2022/02/25 02:45:15;;;;;;;15.55;9.30;;;4.60;99.90;;;;;;4983370;28;20125;-65
2022/02/25 02:47:43;;;;;;;20.98;9.95;;;4.60;99.90;;;;;;4985535;28;20097;-67
2022/02/25 02:50:11;;;;;;;12.90;9.15;;;4.60;99.90;;;;;;4983408;28;20129;-66
2022/02/25 02:52:38;;;;;;;15.75;9.13;;;4.60;99.90;;;;;;4986188;28;20085;-69
2022/02/25 02:55:06;;;;;;;15.00;9.07;;;4.60;99.90;;;;;;4986775;28;20070;-67
2022/02/25 02:57:35;;;;;;;14.32;10.68;;;4.60;99.90;;;;;;4984205;28;20054;-66
2022/02/25 03:00:05;;;;;;;18.65;11.25;;;4.50;99.90;;;;;;4986378;28;20050;-67
2022/02/25 03:02:32;;;;;;;15.88;10.57;;;4.50;99.90;;;;;;4984684;28;20101;-66
2022/02/25 03:04:59;;;;;;;16.92;10.93;;;4.50;99.90;;;;;;5017855;28;20054;-64
2022/02/25 03:07:26;;;;;;;14.43;9.52;;;4.50;99.90;;;;;;4980880;28;20125;-64
2022/02/25 03:09:54;;;;;;;13.13;8.30;;;4.50;99.90;;;;;;4994399;28;20046;-70
2022/02/25 03:12:21;;;;;;;12.38;7.07;;;4.50;99.90;;;;;;4984828;28;20053;-71
2022/02/25 03:14:49;;;;;;;11.68;7.88;;;4.40;99.90;;;;;;4984021;28;20054;-68
2022/02/25 03:17:16;;;;;;;12.05;6.28;;;4.30;99.90;;;;;;4983657;28;20046;-67
2022/02/25 03:19:43;;;;;;;8.00;6.15;;;4.20;99.90;;;;;;4983080;28;20054;-68
2022/02/25 03:22:12;;;;;;;8.32;4.38;;;4.10;99.90;;;;;;4987110;28;20048;-66
2022/02/25 03:24:52;;;;;;;;;;;3.90;99.90;;;;;;4984048;28;20053;-66
2022/02/25 03:27:19;;;;;;;3.03;0.90;;;3.60;99.90;;;;;;4983305;28;20503;-66
2022/02/25 03:29:46;;;;;;;2.88;0.45;;;3.20;99.90;;;;;;4985746;28;20102;-65
2022/02/25 03:32:15;;;;;;;1.60;0.30;;;2.50;99.90;;;;;;4984479;28;20038;-69
2022/02/25 03:34:42;;;;;;;1.73;0.50;;;2.10;99.90;;;;;;4987008;28;20057;-66
2022/02/25 03:37:09;;;;;;;3.83;0.38;;;1.80;99.90;;;;;;4985644;28;20089;-69
2022/02/25 03:39:36;;;;;;;1.13;0.45;;;1.50;99.90;;;;;;4985351;28;20078;-72
2022/02/25 03:42:04;;;;;;;16.30;1.40;;;1.40;99.90;;;;;;4987035;28;20129;-66
2022/02/25 03:44:31;;;;;;;8.27;1.02;;;1.20;99.90;;;;;;4988362;28;20473;-66
2022/02/25 03:46:58;;;;;;;10.93;1.55;;;1.10;99.90;;;;;;4983050;28;20054;-69
2022/02/25 03:49:25;;;;;;;8.07;0.52;;;1.00;99.90;;;;;;4980755;28;20569;-70
2022/02/25 03:51:52;;;;;;;18.33;2.47;;;1.00;99.90;;;;;;4985274;28;20077;-66
2022/02/25 03:54:19;;;;;;;4.70;0.90;;;0.90;99.90;;;;;;4986337;28;20043;-66
2022/02/25 03:56:46;;;;;;;23.73;3.00;;;0.90;99.90;;;;;;4996586;28;20517;-66
2022/02/25 03:59:13;;;;;;;5.90;0.93;;;0.80;99.90;;;;;;5004079;28;20410;-66
2022/02/25 04:01:40;;;;;;;5.47;0.73;;;0.90;99.90;;;;;;5002930;28;20112;-69
2022/02/25 04:04:07;;;;;;;12.32;1.48;;;0.70;99.90;;;;;;5037788;28;20081;-67
2022/02/25 04:06:34;;;;;;;52.35;7.32;;;0.70;99.90;;;;;;5002678;28;20476;-68
2022/02/25 04:09:01;;;;;;;9.88;1.17;;;0.70;99.90;;;;;;5004396;28;20192;-66
2022/02/25 04:11:28;;;;;;;18.55;1.60;;;0.70;99.90;;;;;;5002942;28;20233;-69
2022/02/25 04:13:55;;;;;;;26.17;2.35;;;0.70;99.90;;;;;;5001568;28;20049;-67
2022/02/25 04:16:22;;;;;;;39.17;2.42;;;0.60;99.90;;;;;;4995610;28;20129;-68
2022/02/25 04:18:49;;;;;;;40.22;3.72;;;0.60;99.90;;;;;;4984447;28;20132;-66
2022/02/25 04:21:15;;;;;;;47.75;3.40;;;0.60;99.90;;;;;;4982116;28;20129;-65
2022/02/25 04:23:42;;;;;;;3.25;0.88;;;0.60;99.90;;;;;;4985030;28;20058;-69
2022/02/25 04:26:09;;;;;;;33.60;3.38;;;0.60;99.90;;;;;;4984653;28;20134;-69
2022/02/25 04:28:36;;;;;;;30.42;2.90;;;0.60;99.90;;;;;;4982926;28;20136;-67
2022/02/25 04:31:03;;;;;;;40.60;6.32;;;0.60;99.90;;;;;;4983743;28;20483;-66
2022/02/25 04:33:32;;;;;;;18.42;1.23;;;0.60;99.90;;;;;;5034698;28;20049;-67
2022/02/25 04:35:59;;;;;;;28.38;3.90;;;0.60;99.90;;;;;;5005304;28;20046;-65
2022/02/25 04:38:26;;;;;;;14.68;1.92;;;0.60;99.90;;;;;;5002006;28;20081;-70
2022/02/25 04:40:54;;;;;;;11.63;1.00;;;0.60;99.90;;;;;;4990218;28;20137;-67
2022/02/25 04:43:21;;;;;;;11.38;1.77;;;0.60;99.90;;;;;;5000730;28;20104;-69
2022/02/25 04:45:50;;;;;;;5.55;1.08;;;0.60;99.90;;;;;;5003847;28;20073;-66
2022/02/25 04:48:17;;;;;;;10.02;3.03;;;0.60;99.90;;;;;;5002678;28;20076;-67
2022/02/25 04:50:44;;;;;;;5.97;1.80;;;0.70;99.90;;;;;;5003906;28;20073;-68
2022/02/25 04:53:11;;;;;;;6.53;1.63;;;0.70;99.90;;;;;;5001479;28;20071;-69
2022/02/25 04:55:38;;;;;;;10.13;1.85;;;0.80;99.90;;;;;;5004001;28;20060;-72
2022/02/25 04:58:05;;;;;;;7.72;2.40;;;0.80;99.90;;;;;;5003260;28;20077;-68
2022/02/25 05:00:32;;;;;;;10.55;1.50;;;0.80;99.90;;;;;;5000651;28;20077;-66
2022/02/25 05:02:59;;;;;;;11.00;2.58;;;0.90;99.90;;;;;;5017936;28;20045;-77
2022/02/25 05:05:26;;;;;;;10.50;2.63;;;0.90;99.90;;;;;;4999561;28;20108;-69
2022/02/25 05:07:53;;;;;;;8.60;3.03;;;1.00;99.90;;;;;;4943852;28;20199;-66
2022/02/25 05:10:21;;;;;;;8.05;2.10;;;1.00;99.90;;;;;;1322926;28;10023425;-68
2022/02/25 05:12:47;;;;;;;15.20;3.55;;;1.10;99.90;;;;;;5001823;28;20393;-67
2022/02/25 05:20:45;;;;;;;14.15;2.63;;;1.20;99.90;;;;;;5002605;28;20073;-68
2022/02/25 05:23:12;;;;;;;13.77;4.82;;;1.20;99.90;;;;;;5002684;28;20050;-68
2022/02/25 05:25:40;;;;;;;17.17;5.10;;;1.30;99.90;;;;;;5004587;28;20083;-69
2022/02/25 05:28:07;;;;;;;12.77;2.50;;;1.40;99.90;;;;;;5006082;28;20165;-67
2022/02/25 05:30:35;;;;;;;11.10;3.00;;;1.50;99.90;;;;;;5007011;28;20192;-69
2022/02/25 05:33:03;;;;;;;10.40;3.40;;;1.50;99.90;;;;;;5004888;28;20073;-67
2022/02/25 05:35:30;;;;;;;17.40;4.88;;;1.60;99.90;;;;;;5006090;28;20570;-67
2022/02/25 05:37:58;;;;;;;18.90;2.22;;;1.70;99.90;;;;;;5005618;28;20057;-69
2022/02/25 05:40:25;;;;;;;8.75;3.30;;;1.70;99.90;;;;;;4998153;28;20448;-70
2022/02/25 05:42:53;;;;;;;19.08;2.88;;;1.70;99.90;;;;;;5026720;28;20050;-68
2022/02/25 05:45:20;;;;;;;11.48;2.72;;;1.80;99.90;;;;;;4998251;28;20514;-71
2022/02/25 05:47:59;;;;;;;14.65;1.90;;;1.80;99.90;;;;;;3897672;28;10002062;-68
2022/02/25 05:50:27;;;;;;;8.75;3.63;;;1.90;99.90;;;;;;2069237;28;10002024;-69
2022/02/25 05:52:55;;;;;;;12.07;2.63;;;1.90;99.90;;;;;;5038782;28;20492;-68
2022/02/25 05:55:22;;;;;;;7.97;3.20;;;1.90;99.90;;;;;;5000105;28;20053;-69
2022/02/25 05:57:51;;;;;;;11.15;5.78;;;1.90;99.90;;;;;;4998479;28;20077;-72
2022/02/25 06:00:19;;;;;;;12.45;2.13;;;1.90;99.90;;;;;;4993965;28;20057;-69
2022/02/25 06:02:48;;;;;;;14.50;3.83;;;1.90;99.90;;;;;;5001868;28;20555;-68
2022/02/25 06:05:16;;;;;;;5.80;1.88;;;2.00;99.90;;;;;;5000252;28;20054;-69
2022/02/25 06:07:43;;;;;;;12.55;3.60;;;2.00;99.90;;;;;;4999351;28;20167;-69
2022/02/25 06:10:11;;;;;;;11.68;3.08;;;2.00;99.90;;;;;;5003615;28;20046;-69
2022/02/25 06:12:39;;;;;;;11.07;2.42;;;2.00;99.90;;;;;;5003800;28;20054;-68
2022/02/25 06:15:08;;;;;;;10.77;2.38;;;2.00;99.90;;;;;;5002491;28;20148;-68
2022/02/25 06:17:49;;;;;;;9.95;2.40;;;2.10;99.90;;;;;;5000874;28;20037;-68
2022/02/25 06:20:18;;;;;;;8.32;2.22;;;2.10;99.90;;;;;;5001518;28;20042;-72
2022/02/25 06:22:46;;;;;;;9.35;2.42;;;2.10;99.90;;;;;;5003465;28;20136;-68
2022/02/25 06:25:14;;;;;;;12.98;2.58;;;2.10;99.90;;;;;;5003725;28;20145;-68
2022/02/25 06:27:42;;;;;;;11.50;5.03;;;2.10;99.90;;;;;;5003125;28;20086;-69
2022/02/25 06:30:11;;;;;;;17.38;2.60;;;2.10;99.90;;;;;;5002660;28;20516;-68
2022/02/25 06:32:39;;;;;;;19.70;3.90;;;2.10;99.90;;;;;;5000638;28;20566;-73
2022/02/25 06:35:07;;;;;;;13.13;2.75;;;2.20;99.90;;;;;;4995828;28;20475;-69
2022/02/25 06:37:34;;;;;;;13.68;2.78;;;2.20;99.90;;;;;;4995358;28;20050;-73
2022/02/25 06:40:01;;;;;;;10.88;2.65;;;2.20;99.90;;;;;;5027662;28;20116;-69
2022/02/25 06:42:29;;;;;;;8.30;1.90;;;2.20;99.90;;;;;;4996660;28;20077;-69
2022/02/25 06:44:56;;;;;;;16.45;2.95;;;2.20;99.90;;;;;;4998463;28;20781;-70
2022/02/25 06:47:23;;;;;;;10.20;2.00;;;2.30;99.90;;;;;;5001390;28;20131;-71
2022/02/25 06:49:50;;;;;;;11.68;1.70;;;2.30;99.90;;;;;;4998427;28;20782;-70
2022/02/25 06:52:17;;;;;;;15.88;4.93;;;2.30;99.90;;;;;;5003142;28;20448;-72
2022/02/25 06:54:44;;;;;;;8.15;2.22;;;2.30;99.90;;;;;;5002284;28;20192;-68
2022/02/25 06:57:12;;;;;;;14.38;2.78;;;2.30;99.90;;;;;;5002982;28;20103;-68
2022/02/25 06:59:39;;;;;;;11.88;2.10;;;2.30;99.90;;;;;;5002681;28;20073;-68
2022/02/25 07:02:06;;;;;;;20.25;3.25;;;2.30;99.90;;;;;;5006456;28;20081;-68
2022/02/25 07:04:33;;;;;;;10.35;2.40;;;2.40;99.90;;;;;;5002704;28;20052;-68
2022/02/25 07:07:01;;;;;;;14.80;2.67;;;2.40;99.90;;;;;;5004492;28;20060;-67
2022/02/25 07:09:27;;;;;;;12.93;4.05;;;2.30;99.90;;;;;;5001447;28;20057;-70
2022/02/25 07:11:54;;;;;;;11.38;2.72;;;2.40;99.90;;;;;;5004193;28;20104;-68
2022/02/25 07:14:21;;;;;;;11.77;2.35;;;2.40;99.90;;;;;;5003479;28;20052;-73
2022/02/25 07:16:48;;;;;;;11.40;2.17;;;2.40;99.90;;;;;;5005255;28;20143;-69
2022/02/25 07:19:16;;;;;;;11.95;2.83;;;2.40;99.90;;;;;;5000306;28;20046;-70
2022/02/25 07:21:43;;;;;;;15.13;3.60;;;2.40;99.90;;;;;;5008527;28;20475;-69
2022/02/25 07:24:10;;;;;;;9.77;2.95;;;2.40;99.90;;;;;;5004185;28;20061;-67
2022/02/25 07:26:37;;;;;;;8.30;1.75;;;2.40;99.90;;;;;;5005477;28;20722;-67
2022/02/25 07:29:05;;;;;;;10.38;3.03;;;2.40;99.90;;;;;;4999740;28;20385;-70
2022/02/25 07:31:32;;;;;;;10.77;2.63;;;2.40;99.90;;;;;;5004417;28;20137;-69
2022/02/25 07:34:06;;;;;;;11.82;2.30;;;2.40;99.90;;;;;;5002396;28;20535;-68
2022/02/25 07:36:35;;;;;;;12.48;2.55;;;2.40;99.90;;;;;;5006770;28;20129;-69
2022/02/25 07:39:04;;;;;;;16.10;3.40;;;2.40;99.90;;;;;;4995877;28;20488;-70
2022/02/25 07:41:31;;;;;;;18.50;2.85;;;2.40;99.90;;;;;;5002030;28;20046;-67
2022/02/25 07:43:58;;;;;;;11.05;3.47;;;2.40;99.90;;;;;;5002600;28;20145;-72
2022/02/25 07:46:25;;;;;;;11.77;2.65;;;2.40;99.90;;;;;;4915474;28;20123;-68
2022/02/25 07:49:12;;;;;;;12.35;2.53;;;2.40;99.90;;;;;;1368957;28;10001999;-67
2022/02/25 07:51:39;;;;;;;15.48;3.90;;;2.40;99.90;;;;;;4986329;28;20105;-70
2022/02/25 07:54:06;;;;;;;14.20;3.45;;;2.40;99.90;;;;;;4984670;28;20050;-70
2022/02/25 07:56:33;;;;;;;13.25;3.25;;;2.40;99.90;;;;;;4985330;28;20054;-67
2022/02/25 07:59:00;;;;;;;6.32;2.03;;;2.40;99.90;;;;;;4989075;28;20109;-70
2022/02/25 08:01:27;;;;;;;6.75;2.83;;;2.50;99.90;;;;;;4985572;28;20098;-68
2022/02/25 08:03:54;;;;;;;13.05;3.65;;;2.50;99.90;;;;;;4986117;28;20050;-69
2022/02/25 08:06:21;;;;;;;17.70;4.07;;;2.50;99.90;;;;;;4985681;28;20050;-70
2022/02/25 08:08:48;;;;;;;11.50;2.38;;;2.50;99.90;;;;;;4987074;28;20524;-68
2022/02/25 08:11:15;;;;;;;10.13;2.85;;;2.60;99.90;;;;;;4984613;28;20133;-71
2022/02/25 08:13:42;;;;;;;12.02;4.13;;;2.50;99.90;;;;;;4988895;28;20089;-69
2022/02/25 08:16:10;;;;;;;14.77;3.33;;;2.50;99.90;;;;;;4989679;28;20169;-67
2022/02/25 08:18:37;;;;;;;15.02;2.38;;;2.50;99.90;;;;;;4987681;28;20125;-67
2022/02/25 08:21:04;;;;;;;22.58;3.65;;;2.50;99.90;;;;;;4986137;28;20046;-69
2022/02/25 08:23:34;;;;;;;14.73;3.42;;;2.50;99.90;;;;;;4985830;28;20150;-67
2022/02/25 08:26:01;;;;;;;12.43;2.10;;;2.60;99.90;;;;;;4986310;28;20046;-68
2022/02/25 08:28:28;;;;;;;9.13;2.80;;;2.60;99.90;;;;;;4986967;28;20125;-69
2022/02/25 08:30:55;;;;;;;9.82;2.65;;;2.70;99.90;;;;;;4984411;28;20469;-66
2022/02/25 08:33:22;;;;;;;10.75;2.78;;;2.70;99.90;;;;;;4985790;28;20057;-67
2022/02/25 08:35:49;;;;;;;16.92;3.92;;;2.70;99.90;;;;;;4985792;28;20129;-70
2022/02/25 08:38:17;;;;;;;16.13;5.25;;;2.70;99.90;;;;;;4989797;28;20116;-66
2022/02/25 08:40:45;;;;;;;10.95;2.35;;;2.70;99.90;;;;;;4984816;28;20054;-67
2022/02/25 08:43:13;;;;;;;15.02;3.05;;;2.80;99.90;;;;;;4987773;28;20147;-74
2022/02/25 08:45:41;;;;;;;8.50;2.10;;;2.80;99.90;;;;;;4984826;28;20050;-66
2022/02/25 08:48:11;;;;;;;22.52;3.97;;;2.80;99.90;;;;;;4987576;28;20062;-67
2022/02/25 08:50:39;;;;;;;;;;;2.80;99.90;;;;;;4986279;28;20145;-72
2022/02/25 08:53:06;;;;;;;14.15;2.47;;;2.70;99.90;;;;;;4990246;28;19972;-66
2022/02/25 08:55:34;;;;;;;24.98;4.93;;;2.70;99.90;;;;;;4984722;28;20046;-67
2022/02/25 08:58:02;;;;;;;16.35;2.78;;;2.70;99.90;;;;;;4984488;28;20046;-67
2022/02/25 09:00:30;;;;;;;7.88;2.67;;;2.60;99.90;;;;;;4983080;28;20046;-67
2022/02/25 09:02:57;;;;;;;12.38;2.25;;;2.70;99.90;;;;;;4986105;28;20084;-66
2022/02/25 09:05:25;;;;;;;9.50;2.53;;;2.60;99.90;;;;;;4982847;28;20061;-68
2022/02/25 09:07:53;;;;;;;19.85;3.80;;;2.70;99.90;;;;;;4987641;28;20084;-68
2022/02/25 09:10:21;;;;;;;11.85;3.08;;;2.70;99.90;;;;;;4984438;28;20050;-68
2022/02/25 09:12:49;;;;;;;15.50;2.97;;;2.80;99.90;;;;;;4988165;28;20081;-68
2022/02/25 09:15:22;;;;;;;11.65;2.85;;;2.80;99.90;;;;;;4983921;28;20361;-70
2022/02/25 09:17:56;;;;;;;15.10;3.00;;;2.90;99.90;;;;;;4987762;28;20068;-68
2022/02/25 09:20:24;;;;;;;11.35;3.30;;;2.90;99.90;;;;;;4996100;28;20140;-65
2022/02/25 09:22:52;;;;;;;13.35;3.03;;;2.90;99.90;;;;;;5005193;28;20106;-65
2022/02/25 09:25:27;;;;;;;11.50;2.67;;;2.90;99.90;;;;;;5000506;28;20145;-66
2022/02/25 09:27:55;;;;;;;10.05;4.25;;;3.00;99.90;;;;;;4985817;28;20050;-72
2022/02/25 09:30:22;;;;;;;13.93;3.75;;;3.00;99.90;;;;;;4987623;28;20101;-67
2022/02/25 09:32:49;;;;;;;10.65;3.75;;;3.00;99.90;;;;;;4988622;28;20046;-66
2022/02/25 09:35:16;;;;;;;19.85;2.95;;;3.00;99.90;;;;;;5000791;28;20121;-72
2022/02/25 09:37:43;;;;;;;15.77;2.90;;;3.00;99.90;;;;;;5005212;28;20049;-69
2022/02/25 09:40:13;;;;;;;12.43;2.58;;;3.00;99.90;;;;;;5006124;28;20141;-67
2022/02/25 09:42:42;;;;;;;11.77;2.27;;;3.00;99.90;;;;;;5005582;28;20057;-68
2022/02/25 09:45:12;;;;;;;11.57;3.30;;;3.10;99.90;;;;;;5004693;28;20359;-69
2022/02/25 09:47:39;;;;;;;14.83;3.07;;;3.10;99.90;;;;;;5005163;28;20089;-67
2022/02/25 09:50:10;;;;;;;26.20;5.10;;;3.20;99.90;;;;;;5003404;28;20399;-73
2022/02/25 09:52:38;;;;;;;10.73;2.40;;;3.20;99.90;;;;;;5005840;28;20456;-66
2022/02/25 09:55:26;;;;;;;23.95;5.10;;;3.20;99.90;;;;;;5004226;28;20141;-65
2022/02/25 09:57:59;;;;;;;14.25;2.78;;;3.20;99.90;;;;;;4984513;28;20925;-65
2022/02/25 10:00:27;;;;;;;12.80;3.50;;;3.30;99.90;;;;;;4993197;28;20157;-67
2022/02/25 10:02:57;;;;;;;10.05;2.45;;;3.30;99.90;;;;;;5005175;28;20045;-66
2022/02/25 10:05:27;;;;;;;19.48;5.07;;;3.30;99.90;;;;;;4997163;28;20046;-68
2022/02/25 10:08:10;;;;;;;18.42;3.25;;;3.30;99.90;;;;;;4988184;28;20465;-67
2022/02/25 10:10:42;;;;;;;17.92;3.13;;;3.30;99.90;;;;;;4999818;28;20060;-67
2022/02/25 10:13:11;;;;;;;12.82;2.72;;;3.30;99.90;;;;;;5002110;28;20504;-66
2022/02/25 10:15:40;;;;;;;10.68;4.47;;;3.30;99.90;;;;;;4986178;28;20108;-72
2022/02/25 10:18:21;;;;;;;11.07;3.05;;;3.30;99.90;;;;;;5001111;28;20046;-65
2022/02/25 10:20:48;;;;;;;12.98;2.80;;;3.30;99.90;;;;;;4999086;28;20075;-69
2022/02/25 10:23:33;;;;;;;12.77;3.10;;;3.30;99.90;;;;;;4997342;28;20050;-67
2022/02/25 10:26:16;;;;;;;17.13;3.92;;;3.30;99.90;;;;;;4984596;28;20437;-68
2022/02/25 10:28:45;;;;;;;17.45;4.00;;;3.40;99.90;;;;;;4983538;28;20047;-69
2022/02/25 10:31:29;;;;;;;13.93;4.20;;;3.30;99.90;;;;;;4982256;28;20097;-68
2022/02/25 10:33:59;;;;;;;12.27;4.43;;;3.30;99.90;;;;;;4986538;28;20631;-65
2022/02/25 10:36:34;;;;;;;13.30;3.25;;;3.30;99.90;;;;;;4982795;28;20074;-65
2022/02/25 10:39:01;;;;;;;19.45;4.45;;;3.30;99.90;;;;;;4985747;28;20042;-67
2022/02/25 10:41:28;;;;;;;30.33;3.13;;;3.30;99.90;;;;;;4982819;28;20118;-70
2022/02/25 10:43:55;;;;;;;13.20;3.40;;;3.30;99.90;;;;;;4986928;28;20046;-64
2022/02/25 10:46:23;;;;;;;14.18;3.40;;;3.40;99.90;;;;;;4984908;28;21851;-67
2022/02/25 10:48:50;;;;;;;15.85;2.92;;;3.40;99.90;;;;;;4985638;28;20046;-64
2022/02/25 10:51:23;;;;;;;18.20;3.50;;;3.40;99.90;;;;;;4980877;28;20054;-68
2022/02/25 10:53:52;;;;;;;9.95;3.28;;;3.40;99.90;;;;;;4983475;28;20730;-69
2022/02/25 10:56:21;;;;;;;12.93;2.97;;;3.30;99.90;;;;;;4982487;28;20188;-70
2022/02/25 10:58:54;;;;;;;12.95;3.88;;;3.40;99.90;;;;;;4984319;28;21296;-67
2022/02/25 11:01:42;;;;;;;11.35;3.05;;;3.30;99.90;;;;;;4978706;28;20050;-67
2022/02/25 11:04:13;;;;;;;8.68;3.03;;;3.30;99.90;;;;;;4983956;28;20077;-67
2022/02/25 11:06:42;;;;;;;10.80;2.65;;;3.40;99.90;;;;;;4994306;28;20137;-67
2022/02/25 11:09:09;;;;;;;10.57;5.00;;;3.40;99.90;;;;;;5003431;28;20084;-66
2022/02/25 11:11:36;;;;;;;10.15;2.72;;;3.40;99.90;;;;;;5001412;28;20049;-64
2022/02/25 11:14:06;;;;;;;14.77;2.53;;;3.50;99.90;;;;;;5004295;28;20057;-74
2022/02/25 11:16:35;;;;;;;7.88;2.10;;;3.50;99.90;;;;;;5003510;28;20081;-66
2022/02/25 11:19:24;;;;;;;9.50;1.70;;;3.40;99.90;;;;;;5003895;28;20447;-68
2022/02/25 11:21:53;;;;;;;8.75;1.45;;;3.40;99.90;;;;;;5004876;28;20042;-74
2022/02/25 11:24:21;;;;;;;10.20;2.50;;;3.40;99.90;;;;;;5004959;28;20518;-69
2022/02/25 11:26:59;;;;;;;13.00;3.22;;;3.50;99.90;;;;;;5001866;28;20468;-67
2022/02/25 11:29:30;;;;;;;8.57;2.08;;;3.50;99.90;;;;;;4947967;28;20046;-65
2022/02/25 11:32:11;;;;;;;9.27;1.50;;;3.60;99.90;;;;;;1274528;28;10002439;-66
2022/02/25 11:34:40;;;;;;;9.43;2.33;;;3.60;99.90;;;;;;4982742;28;20342;-67
2022/02/25 11:37:06;;;;;;;6.13;1.88;;;3.60;99.90;;;;;;4986262;28;20129;-65
2022/02/25 11:39:34;;;;;;;12.20;1.88;;;3.70;99.90;;;;;;4982124;28;20081;-71
2022/02/25 11:42:03;;;;;;;11.32;5.68;;;3.70;99.90;;;;;;4987359;28;20122;-66
2022/02/25 11:44:31;;;;;;;15.73;3.45;;;3.80;99.90;;;;;;4987542;28;20143;-65
2022/02/25 11:46:59;;;;;;;11.77;1.85;;;3.90;99.90;;;;;;4985676;28;20156;-69
2022/02/25 11:49:27;;;;;;;8.05;2.30;;;3.90;99.90;;;;;;5011238;28;20115;-68
2022/02/25 11:51:58;;;;;;;16.25;3.25;;;3.90;99.90;;;;;;5007883;28;20192;-69
2022/02/25 11:54:31;;;;;;;;;;;3.90;99.90;;;;;;5009942;28;20451;-68
2022/02/25 11:57:04;;;;;;;11.30;2.63;;;3.80;99.90;;;;;;5008612;28;19932;-65
2022/02/25 11:59:31;;;;;;;14.52;3.05;;;3.80;99.90;;;;;;5004277;28;20069;-66
2022/02/25 12:02:35;;;;;;;11.93;2.63;;;3.80;99.90;;;;;;5006534;28;20495;-69
2022/02/25 12:05:05;;;;;;;12.20;2.17;;;3.80;99.90;;;;;;5006200;28;20045;-70
2022/02/25 12:07:49;;;;;;;9.52;2.78;;;3.70;99.90;;;;;;5006377;28;20077;-67
2022/02/25 12:10:22;;;;;;;14.93;2.50;;;3.70;99.90;;;;;;5004554;28;20116;-67
2022/02/25 12:13:05;;;;;;;10.88;2.03;;;3.70;99.90;;;;;;5002886;28;20049;-66
2022/02/25 12:15:34;;;;;;;15.63;2.15;;;3.60;99.90;;;;;;5001807;28;20161;-68
2022/02/25 12:18:04;;;;;;;7.70;2.88;;;3.60;99.90;;;;;;5007697;28;20057;-71
2022/02/25 12:20:52;;;;;;;17.45;2.63;;;3.60;99.90;;;;;;5006663;28;20038;-67
2022/02/25 12:23:21;;;;;;;7.53;2.58;;;3.60;99.90;;;;;;5008204;28;20185;-69
2022/02/25 12:25:55;;;;;;;14.63;3.00;;;3.60;99.90;;;;;;5007750;28;20057;-66
2022/02/25 12:28:34;;;;;;;14.00;3.97;;;3.60;99.90;;;;;;5007610;28;20046;-68
2022/02/25 12:31:14;;;;;;;13.95;2.03;;;3.60;99.90;;;;;;5006275;28;20104;-68
2022/02/25 12:33:45;;;;;;;8.10;2.30;;;3.60;99.90;;;;;;5003292;28;20377;-67
2022/02/25 12:36:29;;;;;;;10.98;3.40;;;3.60;99.90;;;;;;5002405;28;20452;-66
2022/02/25 12:39:05;;;;;;;6.13;2.28;;;3.60;99.90;;;;;;4992392;28;20089;-66
2022/02/25 12:41:43;;;;;;;7.80;2.35;;;3.60;99.90;;;;;;4984959;28;20130;-66
2022/02/25 12:44:23;;;;;;;12.23;4.15;;;3.60;99.90;;;;;;4986937;28;20679;-65
2022/02/25 12:46:55;;;;;;;6.53;1.80;;;3.60;99.90;;;;;;4988001;28;20053;-67
2022/02/25 12:49:24;;;;;;;12.27;3.20;;;3.70;99.90;;;;;;4986963;28;20065;-66
2022/02/25 12:51:55;;;;;;;11.25;2.70;;;3.60;99.90;;;;;;4980498;28;20107;-66
2022/02/25 12:54:25;;;;;;;9.98;2.75;;;3.60;99.90;;;;;;4989553;28;20082;-67
2022/02/25 12:56:55;;;;;;;17.92;4.60;;;3.60;99.90;;;;;;4988258;28;20049;-65
2022/02/25 12:59:54;;;;;;;11.98;2.22;;;3.60;99.90;;;;;;4990307;28;20042;-66
2022/02/25 13:02:22;;;;;;;19.23;3.03;;;3.60;99.90;;;;;;4987963;28;20050;-67
2022/02/25 13:04:54;;;;;;;24.00;4.07;;;3.60;99.90;;;;;;4994089;28;20053;-72